sensor_id;sensor_type;location;lat;lon;timestamp;P1;durP1;ratioP1;P2;durP2;ratioP2
20322;SDS011;10319;52.206;20.996;2023-02-01T00:02:08;16.83;;;6.20;;
20322;SDS011;10319;52.206;20.996;2023-02-01T00:04:39;15.13;;;5.50;;
20322;SDS011;10319;52.206;20.996;2023-02-01T00:07:04;14.77;;;5.13;;
20322;SDS011;10319;52.206;20.996;2023-02-01T00:09:29;15.07;;;5.80;;
20322;SDS011;10319;52.206;20.996;2023-02-01T00:11:55;15.77;;;5.17;;
20322;SDS011;10319;52.206;20.996;2023-02-01T00:14:25;15.00;;;5.20;;
20322;SDS011;10319;52.206;20.996;2023-02-01T00:16:50;14.60;;;5.40;;
20322;SDS011;10319;52.206;20.996;2023-02-01T00:19:18;15.47;;;5.10;;
20322;SDS011;10319;52.206;20.996;2023-02-01T00:21:54;13.67;;;4.70;;
20322;SDS011;10319;52.206;20.996;2023-02-01T00:24:20;14.90;;;5.23;;
20322;SDS011;10319;52.206;20.996;2023-02-01T00:26:46;14.57;;;4.77;;
20322;SDS011;10319;52.206;20.996;2023-02-01T00:29:15;13.57;;;3.90;;
20322;SDS011;10319;52.206;20.996;2023-02-01T03:42:38;16.63;;;2.20;;
20322;SDS011;10319;52.206;20.996;2023-02-01T05:57:53;12.77;;;2.10;;
20322;SDS011;10319;52.206;20.996;2023-02-01T06:00:19;18.97;;;2.77;;
20322;SDS011;10319;52.206;20.996;2023-02-01T06:02:44;17.17;;;2.47;;
20322;SDS011;10319;52.206;20.996;2023-02-01T06:05:09;19.27;;;2.87;;
20322;SDS011;10319;52.206;20.996;2023-02-01T06:07:35;16.77;;;2.57;;
20322;SDS011;10319;52.206;20.996;2023-02-01T06:10:00;18.17;;;2.60;;
20322;SDS011;10319;52.206;20.996;2023-02-01T06:12:25;16.53;;;2.80;;
20322;SDS011;10319;52.206;20.996;2023-02-01T06:14:55;13.67;;;2.33;;
20322;SDS011;10319;52.206;20.996;2023-02-01T06:17:20;17.23;;;2.60;;
20322;SDS011;10319;52.206;20.996;2023-02-01T06:19:47;19.07;;;2.50;;
20322;SDS011;10319;52.206;20.996;2023-02-01T06:22:20;20.80;;;2.23;;
20322;SDS011;10319;52.206;20.996;2023-02-01T06:28:09;18.40;;;2.30;;
20322;SDS011;10319;52.206;20.996;2023-02-01T06:30:34;14.80;;;2.17;;
20322;SDS011;10319;52.206;20.996;2023-02-01T07:11:54;16.60;;;2.87;;
20322;SDS011;10319;52.206;20.996;2023-02-01T07:18:28;14.23;;;2.77;;
20322;SDS011;10319;52.206;20.996;2023-02-01T07:24:17;24.00;;;2.80;;
20322;SDS011;10319;52.206;20.996;2023-02-01T07:33:34;16.57;;;2.03;;
20322;SDS011;10319;52.206;20.996;2023-02-01T07:48:28;12.87;;;2.20;;
20322;SDS011;10319;52.206;20.996;2023-02-01T07:51:10;19.73;;;3.20;;
20322;SDS011;10319;52.206;20.996;2023-02-01T07:53:36;20.00;;;2.87;;
20322;SDS011;10319;52.206;20.996;2023-02-01T07:59:09;18.93;;;2.50;;
20322;SDS011;10319;52.206;20.996;2023-02-01T08:01:54;20.43;;;2.50;;
20322;SDS011;10319;52.206;20.996;2023-02-01T08:13:10;17.97;;;2.57;;
20322;SDS011;10319;52.206;20.996;2023-02-01T08:15:35;14.00;;;2.53;;
20322;SDS011;10319;52.206;20.996;2023-02-01T08:18:01;19.50;;;2.53;;
20322;SDS011;10319;52.206;20.996;2023-02-01T08:20:27;18.17;;;2.43;;
20322;SDS011;10319;52.206;20.996;2023-02-01T08:22:53;17.37;;;2.60;;
20322;SDS011;10319;52.206;20.996;2023-02-01T08:25:18;19.10;;;2.67;;
20322;SDS011;10319;52.206;20.996;2023-02-01T08:27:43;18.77;;;2.30;;
20322;SDS011;10319;52.206;20.996;2023-02-01T08:30:09;19.50;;;3.10;;
20322;SDS011;10319;52.206;20.996;2023-02-01T08:32:35;17.83;;;2.50;;
20322;SDS011;10319;52.206;20.996;2023-02-01T08:35:00;14.60;;;2.67;;
20322;SDS011;10319;52.206;20.996;2023-02-01T08:37:26;15.57;;;2.40;;
20322;SDS011;10319;52.206;20.996;2023-02-01T08:39:51;19.07;;;2.77;;
20322;SDS011;10319;52.206;20.996;2023-02-01T08:42:16;16.90;;;2.43;;
20322;SDS011;10319;52.206;20.996;2023-02-01T08:45:00;21.03;;;2.50;;
20322;SDS011;10319;52.206;20.996;2023-02-01T08:47:26;15.40;;;2.43;;
20322;SDS011;10319;52.206;20.996;2023-02-01T08:49:53;22.20;;;3.30;;
20322;SDS011;10319;52.206;20.996;2023-02-01T08:52:18;16.53;;;2.57;;
20322;SDS011;10319;52.206;20.996;2023-02-01T08:54:50;22.70;;;2.83;;
20322;SDS011;10319;52.206;20.996;2023-02-01T08:57:24;19.33;;;2.90;;
20322;SDS011;10319;52.206;20.996;2023-02-01T09:00:09;19.40;;;2.73;;
20322;SDS011;10319;52.206;20.996;2023-02-01T09:02:35;15.77;;;2.30;;
20322;SDS011;10319;52.206;20.996;2023-02-01T09:05:02;18.17;;;2.37;;
20322;SDS011;10319;52.206;20.996;2023-02-01T09:07:32;17.57;;;2.73;;
20322;SDS011;10319;52.206;20.996;2023-02-01T09:09:57;23.73;;;2.90;;
20322;SDS011;10319;52.206;20.996;2023-02-01T09:12:26;23.53;;;2.47;;
20322;SDS011;10319;52.206;20.996;2023-02-01T09:14:55;17.70;;;2.70;;
20322;SDS011;10319;52.206;20.996;2023-02-01T09:17:20;20.40;;;2.73;;
20322;SDS011;10319;52.206;20.996;2023-02-01T09:19:45;16.03;;;2.70;;
20322;SDS011;10319;52.206;20.996;2023-02-01T09:22:11;13.17;;;2.27;;
20322;SDS011;10319;52.206;20.996;2023-02-01T09:24:37;15.33;;;2.70;;
20322;SDS011;10319;52.206;20.996;2023-02-01T09:27:04;15.53;;;2.50;;
20322;SDS011;10319;52.206;20.996;2023-02-01T09:29:30;21.60;;;3.00;;
20322;SDS011;10319;52.206;20.996;2023-02-01T09:32:06;14.40;;;2.50;;
20322;SDS011;10319;52.206;20.996;2023-02-01T09:34:32;14.80;;;2.43;;
20322;SDS011;10319;52.206;20.996;2023-02-01T09:37:01;17.73;;;2.87;;
20322;SDS011;10319;52.206;20.996;2023-02-01T09:39:32;19.23;;;2.40;;
20322;SDS011;10319;52.206;20.996;2023-02-01T09:45:15;18.93;;;2.73;;
20322;SDS011;10319;52.206;20.996;2023-02-01T09:47:52;19.37;;;2.87;;
20322;SDS011;10319;52.206;20.996;2023-02-01T09:50:38;16.87;;;2.67;;
20322;SDS011;10319;52.206;20.996;2023-02-01T09:53:20;21.23;;;3.13;;
20322;SDS011;10319;52.206;20.996;2023-02-01T10:28:44;22.60;;;2.90;;
20322;SDS011;10319;52.206;20.996;2023-02-01T10:31:11;18.60;;;2.50;;
20322;SDS011;10319;52.206;20.996;2023-02-01T10:47:26;16.10;;;2.37;;
20322;SDS011;10319;52.206;20.996;2023-02-01T10:52:42;16.37;;;2.80;;
20322;SDS011;10319;52.206;20.996;2023-02-01T10:57:58;17.23;;;2.67;;
20322;SDS011;10319;52.206;20.996;2023-02-01T11:00:45;15.70;;;2.60;;
20322;SDS011;10319;52.206;20.996;2023-02-01T12:12:15;14.33;;;2.67;;
20322;SDS011;10319;52.206;20.996;2023-02-01T12:14:50;23.23;;;2.97;;
20322;SDS011;10319;52.206;20.996;2023-02-01T12:17:41;21.03;;;3.50;;
20322;SDS011;10319;52.206;20.996;2023-02-01T12:25:32;20.87;;;3.53;;
20322;SDS011;10319;52.206;20.996;2023-02-01T12:28:25;22.17;;;3.77;;
20322;SDS011;10319;52.206;20.996;2023-02-01T12:33:54;21.00;;;3.03;;
20322;SDS011;10319;52.206;20.996;2023-02-01T12:47:31;18.53;;;3.10;;
20322;SDS011;10319;52.206;20.996;2023-02-01T12:50:05;17.07;;;3.03;;
20322;SDS011;10319;52.206;20.996;2023-02-01T12:55:27;22.03;;;3.60;;
20322;SDS011;10319;52.206;20.996;2023-02-01T12:57:56;19.37;;;3.73;;
20322;SDS011;10319;52.206;20.996;2023-02-01T13:01:05;23.23;;;3.73;;
20322;SDS011;10319;52.206;20.996;2023-02-01T13:05:56;16.63;;;2.97;;
20322;SDS011;10319;52.206;20.996;2023-02-01T13:23:46;22.03;;;3.60;;
20322;SDS011;10319;52.206;20.996;2023-02-01T13:26:13;21.30;;;3.47;;
20322;SDS011;10319;52.206;20.996;2023-02-01T13:29:06;22.13;;;3.50;;
20322;SDS011;10319;52.206;20.996;2023-02-01T13:43:21;15.17;;;2.70;;
20322;SDS011;10319;52.206;20.996;2023-02-01T13:45:49;15.60;;;2.73;;
20322;SDS011;10319;52.206;20.996;2023-02-01T13:51:47;14.47;;;2.53;;
20322;SDS011;10319;52.206;20.996;2023-02-01T14:00:38;13.90;;;2.77;;
20322;SDS011;10319;52.206;20.996;2023-02-01T14:03:42;15.83;;;3.00;;
20322;SDS011;10319;52.206;20.996;2023-02-01T14:06:51;17.37;;;3.33;;
20322;SDS011;10319;52.206;20.996;2023-02-01T14:09:19;18.03;;;2.70;;
20322;SDS011;10319;52.206;20.996;2023-02-01T14:12:42;15.87;;;2.67;;
20322;SDS011;10319;52.206;20.996;2023-02-01T14:14:52;15.20;;;2.63;;
20322;SDS011;10319;52.206;20.996;2023-02-01T14:17:45;13.33;;;2.80;;
20322;SDS011;10319;52.206;20.996;2023-02-01T14:20:59;15.07;;;3.03;;
20322;SDS011;10319;52.206;20.996;2023-02-01T14:23:03;18.17;;;3.13;;
20322;SDS011;10319;52.206;20.996;2023-02-01T14:25:48;14.60;;;2.80;;
20322;SDS011;10319;52.206;20.996;2023-02-01T14:28:30;15.63;;;2.53;;
20322;SDS011;10319;52.206;20.996;2023-02-01T14:30:56;14.13;;;2.90;;
20322;SDS011;10319;52.206;20.996;2023-02-01T14:33:27;15.60;;;3.10;;
20322;SDS011;10319;52.206;20.996;2023-02-01T14:35:58;17.67;;;3.13;;
20322;SDS011;10319;52.206;20.996;2023-02-01T14:38:30;16.03;;;2.87;;
20322;SDS011;10319;52.206;20.996;2023-02-01T14:41:23;15.53;;;3.23;;
20322;SDS011;10319;52.206;20.996;2023-02-01T14:49:17;14.43;;;2.83;;
20322;SDS011;10319;52.206;20.996;2023-02-01T14:51:43;14.87;;;2.53;;
20322;SDS011;10319;52.206;20.996;2023-02-01T14:54:11;13.47;;;2.50;;
20322;SDS011;10319;52.206;20.996;2023-02-01T14:56:41;13.27;;;2.33;;
20322;SDS011;10319;52.206;20.996;2023-02-01T14:59:08;12.00;;;2.37;;
20322;SDS011;10319;52.206;20.996;2023-02-01T15:01:35;12.13;;;2.23;;
20322;SDS011;10319;52.206;20.996;2023-02-01T15:04:11;11.07;;;2.50;;
20322;SDS011;10319;52.206;20.996;2023-02-01T15:09:09;12.73;;;2.33;;
20322;SDS011;10319;52.206;20.996;2023-02-01T15:11:55;9.97;;;2.17;;
20322;SDS011;10319;52.206;20.996;2023-02-01T15:14:21;11.33;;;2.40;;
20322;SDS011;10319;52.206;20.996;2023-02-01T15:16:46;11.57;;;2.40;;
20322;SDS011;10319;52.206;20.996;2023-02-01T15:19:27;11.77;;;2.60;;
20322;SDS011;10319;52.206;20.996;2023-02-01T15:21:54;13.70;;;2.40;;
20322;SDS011;10319;52.206;20.996;2023-02-01T15:24:40;11.03;;;2.30;;
20322;SDS011;10319;52.206;20.996;2023-02-01T15:27:05;11.70;;;2.50;;
20322;SDS011;10319;52.206;20.996;2023-02-01T15:29:31;17.43;;;2.90;;
20322;SDS011;10319;52.206;20.996;2023-02-01T15:31:59;10.60;;;2.30;;
20322;SDS011;10319;52.206;20.996;2023-02-01T15:34:43;11.77;;;2.33;;
20322;SDS011;10319;52.206;20.996;2023-02-01T15:37:11;11.43;;;2.37;;
20322;SDS011;10319;52.206;20.996;2023-02-01T15:39:37;13.80;;;2.70;;
20322;SDS011;10319;52.206;20.996;2023-02-01T15:42:22;12.80;;;2.93;;
20322;SDS011;10319;52.206;20.996;2023-02-01T15:44:48;11.93;;;2.67;;
20322;SDS011;10319;52.206;20.996;2023-02-01T15:47:20;11.83;;;2.37;;
20322;SDS011;10319;52.206;20.996;2023-02-01T15:49:50;14.23;;;2.73;;
20322;SDS011;10319;52.206;20.996;2023-02-01T15:55:02;12.40;;;2.77;;
20322;SDS011;10319;52.206;20.996;2023-02-01T15:57:31;15.80;;;3.17;;
20322;SDS011;10319;52.206;20.996;2023-02-01T16:00:07;12.13;;;2.70;;
20322;SDS011;10319;52.206;20.996;2023-02-01T16:02:40;14.00;;;3.53;;
20322;SDS011;10319;52.206;20.996;2023-02-01T16:07:57;10.03;;;2.80;;
20322;SDS011;10319;52.206;20.996;2023-02-01T16:10:29;12.23;;;2.90;;
20322;SDS011;10319;52.206;20.996;2023-02-01T16:12:54;14.00;;;2.80;;
20322;SDS011;10319;52.206;20.996;2023-02-01T16:15:25;12.00;;;3.00;;
20322;SDS011;10319;52.206;20.996;2023-02-01T16:17:51;13.73;;;3.10;;
20322;SDS011;10319;52.206;20.996;2023-02-01T16:20:16;13.90;;;3.27;;
20322;SDS011;10319;52.206;20.996;2023-02-01T16:22:41;14.20;;;3.20;;
20322;SDS011;10319;52.206;20.996;2023-02-01T16:25:07;11.93;;;2.90;;
20322;SDS011;10319;52.206;20.996;2023-02-01T16:27:32;14.23;;;3.33;;
20322;SDS011;10319;52.206;20.996;2023-02-01T16:29:57;16.97;;;3.60;;
20322;SDS011;10319;52.206;20.996;2023-02-01T16:32:26;14.70;;;3.10;;
20322;SDS011;10319;52.206;20.996;2023-02-01T16:34:51;14.20;;;3.30;;
20322;SDS011;10319;52.206;20.996;2023-02-01T16:37:23;13.83;;;3.77;;
20322;SDS011;10319;52.206;20.996;2023-02-01T16:39:48;14.80;;;3.53;;
20322;SDS011;10319;52.206;20.996;2023-02-01T16:42:15;17.37;;;3.70;;
20322;SDS011;10319;52.206;20.996;2023-02-01T16:44:40;15.43;;;3.40;;
20322;SDS011;10319;52.206;20.996;2023-02-01T16:47:21;14.53;;;3.40;;
20322;SDS011;10319;52.206;20.996;2023-02-01T16:49:50;14.23;;;3.43;;
20322;SDS011;10319;52.206;20.996;2023-02-01T16:52:18;12.93;;;3.50;;
20322;SDS011;10319;52.206;20.996;2023-02-01T16:54:44;15.20;;;3.50;;
20322;SDS011;10319;52.206;20.996;2023-02-01T16:57:11;15.53;;;3.73;;
20322;SDS011;10319;52.206;20.996;2023-02-01T16:59:39;21.87;;;4.20;;
20322;SDS011;10319;52.206;20.996;2023-02-01T17:02:05;15.23;;;3.80;;
20322;SDS011;10319;52.206;20.996;2023-02-01T17:04:31;15.23;;;3.70;;
20322;SDS011;10319;52.206;20.996;2023-02-01T17:06:56;18.50;;;4.50;;
20322;SDS011;10319;52.206;20.996;2023-02-01T17:09:23;13.03;;;3.20;;
20322;SDS011;10319;52.206;20.996;2023-02-01T17:11:50;12.57;;;3.10;;
20322;SDS011;10319;52.206;20.996;2023-02-01T17:14:19;14.47;;;3.60;;
20322;SDS011;10319;52.206;20.996;2023-02-01T17:16:46;15.90;;;3.73;;
20322;SDS011;10319;52.206;20.996;2023-02-01T17:19:13;15.80;;;3.60;;
20322;SDS011;10319;52.206;20.996;2023-02-01T17:21:44;15.10;;;3.70;;
20322;SDS011;10319;52.206;20.996;2023-02-01T17:24:11;12.43;;;3.43;;
20322;SDS011;10319;52.206;20.996;2023-02-01T17:26:38;17.37;;;4.10;;
20322;SDS011;10319;52.206;20.996;2023-02-01T17:29:03;14.43;;;3.33;;
20322;SDS011;10319;52.206;20.996;2023-02-01T17:31:28;15.87;;;4.00;;
20322;SDS011;10319;52.206;20.996;2023-02-01T17:33:57;16.10;;;4.17;;
20322;SDS011;10319;52.206;20.996;2023-02-01T17:36:22;18.20;;;3.70;;
20322;SDS011;10319;52.206;20.996;2023-02-01T17:38:47;14.97;;;3.33;;
20322;SDS011;10319;52.206;20.996;2023-02-01T17:41:13;16.90;;;3.77;;
20322;SDS011;10319;52.206;20.996;2023-02-01T17:43:38;16.03;;;3.80;;
20322;SDS011;10319;52.206;20.996;2023-02-01T17:46:14;15.93;;;3.80;;
20322;SDS011;10319;52.206;20.996;2023-02-01T17:48:42;16.87;;;3.87;;
20322;SDS011;10319;52.206;20.996;2023-02-01T17:51:17;16.53;;;3.80;;
20322;SDS011;10319;52.206;20.996;2023-02-01T17:53:54;17.67;;;3.50;;
20322;SDS011;10319;52.206;20.996;2023-02-01T17:59:53;16.97;;;3.90;;
20322;SDS011;10319;52.206;20.996;2023-02-01T18:02:21;14.77;;;3.47;;
20322;SDS011;10319;52.206;20.996;2023-02-01T18:04:47;16.47;;;3.53;;
20322;SDS011;10319;52.206;20.996;2023-02-01T18:07:19;18.43;;;4.00;;
20322;SDS011;10319;52.206;20.996;2023-02-01T18:24:14;13.87;;;3.23;;
20322;SDS011;10319;52.206;20.996;2023-02-01T18:26:40;13.43;;;3.27;;
20322;SDS011;10319;52.206;20.996;2023-02-01T18:29:05;13.53;;;3.13;;
20322;SDS011;10319;52.206;20.996;2023-02-01T18:31:31;15.33;;;3.27;;
20322;SDS011;10319;52.206;20.996;2023-02-01T18:33:57;14.43;;;3.23;;
20322;SDS011;10319;52.206;20.996;2023-02-01T18:36:22;16.97;;;3.90;;
20322;SDS011;10319;52.206;20.996;2023-02-01T18:38:49;16.53;;;3.60;;
